Time,TemperatureF,DewpointF,PressureIn,WindDirection,WindDirectionDegrees,WindSpeedMPH,WindSpeedGustMPH,Humidity,HourlyPrecipIn,Conditions,Clouds,dailyrainin,SolarRadiationWatts/m^2,SoftwareType,DateUTC
2013-09-20 00:03:00,45.0,22.0,30.46,West,261,0.0,4.0,40,0.00,,,0.00,0.000000,,2013-09-20 06:03:00,
2013-09-20 00:42:00,46.0,24.0,30.46,East,93,10.0,14.0,42,0.00,,,0.00,0.000000,,2013-09-20 06:42:00,
2013-09-20 00:52:00,46.0,24.0,30.46,East,93,10.0,14.0,42,0.00,,,0.00,0.000000,,2013-09-20 06:52:00,
2013-09-20 01:02:00,46.0,24.0,30.46,East,93,10.0,14.0,42,0.00,,,0.00,0.000000,,2013-09-20 07:02:00,
2013-09-20 01:11:00,46.0,24.0,30.46,East,93,10.0,14.0,42,0.00,,,0.00,0.000000,,2013-09-20 07:11:00,
2013-09-20 01:42:00,44.0,25.0,30.46,ESE,102,13.0,17.0,46,0.00,,,0.00,0.000000,,2013-09-20 07:42:00,
2013-09-20 01:53:00,44.0,25.0,30.46,ESE,102,13.0,17.0,46,0.00,,,0.00,0.000000,,2013-09-20 07:53:00,
2013-09-20 02:02:00,44.0,25.0,30.46,ESE,102,13.0,17.0,46,0.00,,,0.00,0.000000,,2013-09-20 08:02:00,
2013-09-20 02:11:00,44.0,25.0,30.46,ESE,102,13.0,17.0,46,0.00,,,0.00,0.000000,,2013-09-20 08:11:00,
2013-09-20 02:12:00,42.0,23.0,30.46,East,101,13.0,16.0,46,0.00,,,0.00,0.000000,,2013-09-20 08:12:00,
2013-09-20 02:42:00,42.0,23.0,30.46,East,101,13.0,16.0,46,0.00,,,0.00,0.000000,,2013-09-20 08:42:00,
2013-09-20 02:52:00,42.0,23.0,30.46,East,101,13.0,16.0,46,0.00,,,0.00,0.000000,,2013-09-20 08:52:00,
2013-09-20 03:01:00,42.0,23.0,30.46,East,101,13.0,16.0,46,0.00,,,0.00,0.000000,,2013-09-20 09:01:00,
2013-09-20 03:12:00,42.0,22.0,30.46,East,94,13.0,16.0,44,0.00,,,0.00,0.000000,,2013-09-20 09:12:00,
2013-09-20 03:43:00,42.0,22.0,30.46,East,94,13.0,16.0,44,0.00,,,0.00,0.000000,,2013-09-20 09:43:00,
2013-09-20 03:53:00,42.0,22.0,30.46,East,94,13.0,16.0,44,0.00,,,0.00,0.000000,,2013-09-20 09:53:00,
2013-09-20 04:03:00,42.0,22.0,30.46,East,94,13.0,16.0,44,0.00,,,0.00,0.000000,,2013-09-20 10:03:00,
2013-09-20 04:42:00,41.0,21.0,30.45,East,99,15.0,17.0,44,0.00,,,0.00,0.000000,,2013-09-20 10:42:00,
2013-09-20 04:53:00,41.0,21.0,30.45,East,99,15.0,17.0,44,0.00,,,0.00,0.000000,,2013-09-20 10:53:00,
2013-09-20 05:03:00,41.0,21.0,30.45,East,99,15.0,17.0,44,0.00,,,0.00,0.000000,,2013-09-20 11:03:00,
2013-09-20 05:11:00,41.0,21.0,30.45,East,99,15.0,17.0,44,0.00,,,0.00,0.000000,,2013-09-20 11:11:00,
2013-09-20 05:12:00,38.0,23.0,30.45,East,97,17.0,23.0,55,0.00,,,0.00,0.000000,,2013-09-20 11:12:00,
2013-09-20 05:42:00,38.0,23.0,30.45,East,97,17.0,23.0,55,0.00,,,0.00,0.000000,,2013-09-20 11:42:00,
2013-09-20 05:52:00,38.0,23.0,30.45,East,97,17.0,23.0,55,0.00,,,0.00,0.000000,,2013-09-20 11:52:00,
2013-09-20 06:02:00,38.0,23.0,30.45,East,97,17.0,23.0,55,0.00,,,0.00,0.000000,,2013-09-20 12:02:00,
2013-09-20 06:12:00,39.0,23.0,30.46,ESE,102,18.0,22.0,53,0.00,,,0.00,0.000000,,2013-09-20 12:12:00,
2013-09-20 06:43:00,39.0,23.0,30.46,ESE,102,18.0,22.0,53,0.00,,,0.00,0.000000,,2013-09-20 12:43:00,
2013-09-20 06:52:00,39.0,23.0,30.46,ESE,102,18.0,22.0,53,0.00,,,0.00,0.000000,,2013-09-20 12:52:00,
2013-09-20 07:02:00,39.0,23.0,30.46,ESE,102,18.0,22.0,53,0.00,,,0.00,0.000000,,2013-09-20 13:02:00,
2013-09-20 07:42:00,40.0,23.0,30.45,ESE,103,18.0,22.0,50,0.00,,,-99.99,2.000000,,2013-09-20 13:42:00,
2013-09-20 07:52:00,40.0,23.0,30.45,ESE,103,18.0,22.0,50,0.00,,,-99.99,2.000000,,2013-09-20 13:52:00,
2013-09-20 08:02:00,40.0,23.0,30.45,ESE,103,18.0,22.0,50,0.00,,,-99.99,2.000000,,2013-09-20 14:02:00,
2013-09-20 08:11:00,40.0,23.0,30.45,ESE,103,18.0,22.0,50,0.00,,,-99.99,2.000000,,2013-09-20 14:11:00,
2013-09-20 08:12:00,40.0,23.0,30.48,East,98,18.0,25.0,51,0.00,,,0.00,26.000000,,2013-09-20 14:12:00,
2013-09-20 08:42:00,40.0,23.0,30.48,East,98,18.0,25.0,51,0.00,,,0.00,26.000000,,2013-09-20 14:42:00,
2013-09-20 08:52:00,40.0,23.0,30.48,East,98,18.0,25.0,51,0.00,,,0.00,26.000000,,2013-09-20 14:52:00,
2013-09-20 09:02:00,40.0,23.0,30.48,East,98,18.0,25.0,51,0.00,,,0.00,26.000000,,2013-09-20 15:02:00,
2013-09-20 09:12:00,45.0,24.0,30.49,East,98,14.0,21.0,44,0.00,,,0.00,109.000000,,2013-09-20 15:12:00,
2013-09-20 09:44:00,45.0,24.0,30.49,East,98,14.0,21.0,44,0.00,,,0.00,109.000000,,2013-09-20 15:44:00,
2013-09-20 09:54:00,45.0,24.0,30.49,East,98,14.0,21.0,44,0.00,,,0.00,109.000000,,2013-09-20 15:54:00,
2013-09-20 10:04:00,45.0,24.0,30.49,East,98,14.0,21.0,44,0.00,,,0.00,109.000000,,2013-09-20 16:04:00,
2013-09-20 10:12:00,48.0,27.0,30.50,East,101,13.0,18.0,44,0.00,,,0.00,603.000000,,2013-09-20 16:12:00,
2013-09-20 10:42:00,48.0,27.0,30.50,East,101,13.0,18.0,44,0.00,,,0.00,603.000000,,2013-09-20 16:42:00,
2013-09-20 10:53:00,48.0,27.0,30.50,East,101,13.0,18.0,44,0.00,,,0.00,603.000000,,2013-09-20 16:53:00,
2013-09-20 11:03:00,48.0,27.0,30.50,East,101,13.0,18.0,44,0.00,,,0.00,603.000000,,2013-09-20 17:03:00,
2013-09-20 11:12:00,57.0,29.0,30.38,East,88,7.0,15.0,34,0.00,,,0.00,770.000000,,2013-09-20 17:12:00,
2013-09-20 11:42:00,57.0,29.0,30.38,East,88,7.0,15.0,34,0.00,,,0.00,770.000000,,2013-09-20 17:42:00,
2013-09-20 11:53:00,57.0,29.0,30.38,East,88,7.0,15.0,34,0.00,,,0.00,770.000000,,2013-09-20 17:53:00,
2013-09-20 12:02:00,57.0,29.0,30.38,East,88,7.0,15.0,34,0.00,,,0.00,770.000000,,2013-09-20 18:02:00,
2013-09-20 12:42:00,64.0,31.0,30.05,WNW,300,3.0,12.0,29,0.00,,,0.00,990.000000,,2013-09-20 18:42:00,
2013-09-20 12:52:00,64.0,31.0,30.05,WNW,300,3.0,12.0,29,0.00,,,0.00,990.000000,,2013-09-20 18:52:00,
2013-09-20 13:02:00,64.0,31.0,30.05,WNW,300,3.0,12.0,29,0.00,,,0.00,990.000000,,2013-09-20 19:02:00,
2013-09-20 13:11:00,64.0,31.0,30.05,WNW,300,3.0,12.0,29,0.00,,,0.00,990.000000,,2013-09-20 19:11:00,
2013-09-20 13:42:00,66.0,30.0,29.88,NW,309,3.0,8.0,26,0.00,,,0.00,1059.000000,,2013-09-20 19:42:00,
2013-09-20 13:53:00,66.0,30.0,29.88,NW,309,3.0,8.0,26,0.00,,,0.00,1059.000000,,2013-09-20 19:53:00,
2013-09-20 14:03:00,66.0,30.0,29.88,NW,309,3.0,8.0,26,0.00,,,0.00,1059.000000,,2013-09-20 20:03:00,
2013-09-20 14:11:00,66.0,30.0,29.88,NW,309,3.0,8.0,26,0.00,,,0.00,1059.000000,,2013-09-20 20:11:00,
2013-09-20 14:12:00,68.0,28.0,29.82,WNW,285,6.0,12.0,22,0.00,,,0.00,1046.000000,,2013-09-20 20:12:00,
2013-09-20 14:42:00,68.0,28.0,29.82,WNW,285,6.0,12.0,22,0.00,,,0.00,1046.000000,,2013-09-20 20:42:00,
2013-09-20 14:52:00,68.0,28.0,29.82,WNW,285,6.0,12.0,22,0.00,,,0.00,1046.000000,,2013-09-20 20:52:00,
2013-09-20 15:02:00,68.0,28.0,29.82,WNW,285,6.0,12.0,22,0.00,,,0.00,1046.000000,,2013-09-20 21:02:00,
2013-09-20 15:12:00,71.0,32.0,29.76,WNW,295,8.0,15.0,24,0.00,,,0.00,949.000000,,2013-09-20 21:12:00,
2013-09-20 15:44:00,71.0,32.0,29.76,WNW,295,8.0,15.0,24,0.00,,,0.00,949.000000,,2013-09-20 21:44:00,
2013-09-20 15:54:00,71.0,32.0,29.76,WNW,295,8.0,15.0,24,0.00,,,0.00,949.000000,,2013-09-20 21:54:00,
2013-09-20 16:04:00,71.0,32.0,29.76,WNW,295,8.0,15.0,24,0.00,,,0.00,949.000000,,2013-09-20 22:04:00,
2013-09-20 16:12:00,71.0,30.0,29.70,WNW,302,11.0,17.0,22,0.00,,,0.00,792.000000,,2013-09-20 22:12:00,
2013-09-20 16:44:00,71.0,30.0,29.70,WNW,302,11.0,17.0,22,0.00,,,0.00,792.000000,,2013-09-20 22:44:00,
2013-09-20 16:53:00,71.0,30.0,29.70,WNW,302,11.0,17.0,22,0.00,,,0.00,792.000000,,2013-09-20 22:53:00,
2013-09-20 17:02:00,71.0,30.0,29.70,WNW,302,11.0,17.0,22,0.00,,,0.00,792.000000,,2013-09-20 23:02:00,
2013-09-20 17:42:00,70.0,23.0,29.83,WNW,297,9.0,17.0,17,0.00,,,0.00,586.000000,,2013-09-20 23:42:00,
2013-09-20 17:53:00,70.0,23.0,29.83,WNW,297,9.0,17.0,17,0.00,,,0.00,586.000000,,2013-09-20 23:53:00,
2013-09-20 18:02:00,70.0,23.0,29.83,WNW,297,9.0,17.0,17,0.00,,,0.00,586.000000,,2013-09-21 00:02:00,
2013-09-20 18:11:00,70.0,23.0,29.83,WNW,297,9.0,17.0,17,0.00,,,0.00,586.000000,,2013-09-21 00:11:00,
2013-09-20 18:12:00,67.0,26.0,30.04,WNW,295,9.0,14.0,21,0.00,,,0.00,342.000000,,2013-09-21 00:12:00,
2013-09-20 18:42:00,67.0,26.0,30.04,WNW,295,9.0,14.0,21,0.00,,,0.00,342.000000,,2013-09-21 00:42:00,
2013-09-20 18:52:00,67.0,26.0,30.04,WNW,295,9.0,14.0,21,0.00,,,0.00,342.000000,,2013-09-21 00:52:00,
2013-09-20 19:01:00,67.0,26.0,30.04,WNW,295,9.0,14.0,21,0.00,,,0.00,342.000000,,2013-09-21 01:01:00,
2013-09-20 19:12:00,57.0,23.0,30.31,NW,320,10.0,15.0,27,0.00,,,0.00,54.000000,,2013-09-21 01:12:00,
2013-09-20 19:42:00,57.0,23.0,30.31,NW,320,10.0,15.0,27,0.00,,,0.00,54.000000,,2013-09-21 01:42:00,
2013-09-20 19:52:00,57.0,23.0,30.31,NW,320,10.0,15.0,27,0.00,,,0.00,54.000000,,2013-09-21 01:52:00,
2013-09-20 20:02:00,57.0,23.0,30.31,NW,320,10.0,15.0,27,0.00,,,0.00,54.000000,,2013-09-21 02:02:00,
2013-09-20 20:12:00,53.0,23.0,30.43,NW,322,12.0,19.0,31,0.00,,,0.00,0.000000,,2013-09-21 02:12:00,
2013-09-20 20:42:00,53.0,23.0,30.43,NW,322,12.0,19.0,31,0.00,,,0.00,0.000000,,2013-09-21 02:42:00,
2013-09-20 20:52:00,53.0,23.0,30.43,NW,322,12.0,19.0,31,0.00,,,0.00,0.000000,,2013-09-21 02:52:00,
2013-09-20 21:02:00,53.0,23.0,30.43,NW,322,12.0,19.0,31,0.00,,,0.00,0.000000,,2013-09-21 03:02:00,
2013-09-20 21:12:00,50.0,23.0,30.45,NW,316,7.0,19.0,34,0.00,,,0.00,0.000000,,2013-09-21 03:12:00,
2013-09-20 21:44:00,50.0,23.0,30.45,NW,316,7.0,19.0,34,0.00,,,0.00,0.000000,,2013-09-21 03:44:00,
2013-09-20 21:55:00,50.0,23.0,30.45,NW,316,7.0,19.0,34,0.00,,,0.00,0.000000,,2013-09-21 03:55:00,
2013-09-20 22:04:00,50.0,23.0,30.45,NW,316,7.0,19.0,34,0.00,,,0.00,0.000000,,2013-09-21 04:04:00,
2013-09-20 22:12:00,51.0,24.0,30.45,WNW,301,0.0,8.0,34,0.00,,,0.00,0.000000,,2013-09-21 04:12:00,
2013-09-20 22:43:00,51.0,24.0,30.45,WNW,301,0.0,8.0,34,0.00,,,0.00,0.000000,,2013-09-21 04:43:00,
2013-09-20 22:54:00,51.0,24.0,30.45,WNW,301,0.0,8.0,34,0.00,,,0.00,0.000000,,2013-09-21 04:54:00,
2013-09-20 23:03:00,51.0,24.0,30.45,WNW,301,0.0,8.0,34,0.00,,,0.00,0.000000,,2013-09-21 05:03:00,
2013-09-20 23:12:00,50.0,23.0,30.44,East,88,10.0,12.0,34,0.00,,,0.00,0.000000,,2013-09-21 05:12:00,
2013-09-20 23:44:00,50.0,23.0,30.44,East,88,10.0,12.0,34,0.00,,,0.00,0.000000,,2013-09-21 05:44:00,
2013-09-20 23:53:00,50.0,23.0,30.44,East,88,10.0,12.0,34,0.00,,,0.00,0.000000,,2013-09-21 05:53:00,